sensor_id;sensor_type;location;lat;lon;timestamp;temperature;humidity
816;DHT22;25928;51.062;13.752;2023-02-02T00:01:36;6.10;1.00
816;DHT22;25928;51.062;13.752;2023-02-02T00:04:02;6.00;1.00
816;DHT22;25928;51.062;13.752;2023-02-02T00:06:29;5.90;1.00
816;DHT22;25928;51.062;13.752;2023-02-02T00:08:57;5.80;1.00
816;DHT22;25928;51.062;13.752;2023-02-02T00:11:24;5.80;1.00
816;DHT22;25928;51.062;13.752;2023-02-02T00:13:49;5.90;1.00
816;DHT22;25928;51.062;13.752;2023-02-02T00:18:58;5.60;1.00
816;DHT22;25928;51.062;13.752;2023-02-02T00:21:25;5.40;1.00
816;DHT22;25928;51.062;13.752;2023-02-02T00:23:50;5.50;1.00
816;DHT22;25928;51.062;13.752;2023-02-02T00:26:17;5.40;1.00
816;DHT22;25928;51.062;13.752;2023-02-02T00:28:42;5.50;1.00
816;DHT22;25928;51.062;13.752;2023-02-02T00:31:10;5.50;1.00
816;DHT22;25928;51.062;13.752;2023-02-02T00:33:35;5.70;1.00
816;DHT22;25928;51.062;13.752;2023-02-02T00:36:02;5.70;1.00
816;DHT22;25928;51.062;13.752;2023-02-02T00:38:28;5.70;1.00
816;DHT22;25928;51.062;13.752;2023-02-02T00:40:54;5.70;1.00
816;DHT22;25928;51.062;13.752;2023-02-02T00:43:19;5.70;1.00
816;DHT22;25928;51.062;13.752;2023-02-02T00:45:45;5.70;1.00
816;DHT22;25928;51.062;13.752;2023-02-02T00:48:11;5.70;1.00
816;DHT22;25928;51.062;13.752;2023-02-02T00:50:36;6.10;1.00
816;DHT22;25928;51.062;13.752;2023-02-02T00:53:02;5.80;1.00
816;DHT22;25928;51.062;13.752;2023-02-02T00:55:28;5.70;1.00
816;DHT22;25928;51.062;13.752;2023-02-02T00:57:53;5.80;1.00
816;DHT22;25928;51.062;13.752;2023-02-02T01:00:22;5.90;1.00
816;DHT22;25928;51.062;13.752;2023-02-02T01:02:49;5.80;1.00
816;DHT22;25928;51.062;13.752;2023-02-02T01:05:15;5.80;1.00
816;DHT22;25928;51.062;13.752;2023-02-02T01:07:41;5.80;1.00
816;DHT22;25928;51.062;13.752;2023-02-02T01:10:11;5.80;1.00
816;DHT22;25928;51.062;13.752;2023-02-02T01:12:38;5.80;1.00
816;DHT22;25928;51.062;13.752;2023-02-02T01:15:04;5.80;1.00
816;DHT22;25928;51.062;13.752;2023-02-02T01:17:30;5.80;1.00
816;DHT22;25928;51.062;13.752;2023-02-02T01:19:55;5.80;1.00
816;DHT22;25928;51.062;13.752;2023-02-02T01:22:21;5.80;1.00
816;DHT22;25928;51.062;13.752;2023-02-02T01:24:47;5.70;1.00
816;DHT22;25928;51.062;13.752;2023-02-02T01:27:12;5.70;1.00
816;DHT22;25928;51.062;13.752;2023-02-02T01:29:38;5.70;1.00
816;DHT22;25928;51.062;13.752;2023-02-02T01:32:03;5.80;1.00
816;DHT22;25928;51.062;13.752;2023-02-02T01:34:29;5.70;1.00
816;DHT22;25928;51.062;13.752;2023-02-02T01:36:55;5.80;1.00
816;DHT22;25928;51.062;13.752;2023-02-02T01:39:21;5.90;1.00
816;DHT22;25928;51.062;13.752;2023-02-02T01:41:47;5.90;1.00
816;DHT22;25928;51.062;13.752;2023-02-02T01:47:16;5.80;1.00
816;DHT22;25928;51.062;13.752;2023-02-02T01:49:42;5.90;1.00
816;DHT22;25928;51.062;13.752;2023-02-02T01:52:08;5.80;1.00
816;DHT22;25928;51.062;13.752;2023-02-02T01:54:39;5.80;1.00
816;DHT22;25928;51.062;13.752;2023-02-02T01:57:13;5.90;1.00
816;DHT22;25928;51.062;13.752;2023-02-02T01:59:40;5.80;1.00
816;DHT22;25928;51.062;13.752;2023-02-02T02:02:07;5.80;1.00
816;DHT22;25928;51.062;13.752;2023-02-02T02:04:33;5.70;1.00
816;DHT22;25928;51.062;13.752;2023-02-02T02:07:00;5.70;1.00
816;DHT22;25928;51.062;13.752;2023-02-02T02:09:27;5.70;1.00
816;DHT22;25928;51.062;13.752;2023-02-02T02:11:53;5.80;1.00
816;DHT22;25928;51.062;13.752;2023-02-02T02:14:19;5.80;1.00
816;DHT22;25928;51.062;13.752;2023-02-02T02:32:23;5.80;1.00
816;DHT22;25928;51.062;13.752;2023-02-02T02:35:06;5.80;1.00
816;DHT22;25928;51.062;13.752;2023-02-02T02:37:48;5.80;1.00
816;DHT22;25928;51.062;13.752;2023-02-02T02:40:37;5.90;1.00
816;DHT22;25928;51.062;13.752;2023-02-02T02:45:40;6.00;1.00
816;DHT22;25928;51.062;13.752;2023-02-02T02:48:07;6.10;1.00
816;DHT22;25928;51.062;13.752;2023-02-02T02:50:34;6.00;1.00
816;DHT22;25928;51.062;13.752;2023-02-02T02:53:08;6.00;1.00
816;DHT22;25928;51.062;13.752;2023-02-02T02:56:04;6.00;1.00
816;DHT22;25928;51.062;13.752;2023-02-02T03:01:27;6.00;1.00
816;DHT22;25928;51.062;13.752;2023-02-02T03:04:17;6.10;1.00
816;DHT22;25928;51.062;13.752;2023-02-02T03:07:06;6.00;1.00
816;DHT22;25928;51.062;13.752;2023-02-02T03:09:39;5.90;1.00
816;DHT22;25928;51.062;13.752;2023-02-02T03:12:06;5.90;1.00
816;DHT22;25928;51.062;13.752;2023-02-02T03:14:36;6.00;1.00
816;DHT22;25928;51.062;13.752;2023-02-02T03:17:03;6.00;1.00
816;DHT22;25928;51.062;13.752;2023-02-02T03:19:29;6.10;1.00
816;DHT22;25928;51.062;13.752;2023-02-02T03:21:55;6.10;1.00
816;DHT22;25928;51.062;13.752;2023-02-02T03:24:20;6.10;1.00
816;DHT22;25928;51.062;13.752;2023-02-02T03:26:46;6.00;1.00
816;DHT22;25928;51.062;13.752;2023-02-02T03:29:12;6.00;1.00
816;DHT22;25928;51.062;13.752;2023-02-02T03:31:38;6.10;1.00
816;DHT22;25928;51.062;13.752;2023-02-02T03:34:04;6.10;1.00
816;DHT22;25928;51.062;13.752;2023-02-02T03:36:29;6.00;1.00
816;DHT22;25928;51.062;13.752;2023-02-02T03:38:55;6.00;1.00
816;DHT22;25928;51.062;13.752;2023-02-02T03:41:21;6.10;1.00
816;DHT22;25928;51.062;13.752;2023-02-02T03:43:47;6.00;1.00
816;DHT22;25928;51.062;13.752;2023-02-02T03:46:12;6.10;1.00
816;DHT22;25928;51.062;13.752;2023-02-02T03:48:38;6.00;1.00
816;DHT22;25928;51.062;13.752;2023-02-02T03:51:08;5.90;1.00
816;DHT22;25928;51.062;13.752;2023-02-02T03:53:36;6.00;1.00
816;DHT22;25928;51.062;13.752;2023-02-02T03:56:02;6.00;1.00
816;DHT22;25928;51.062;13.752;2023-02-02T03:58:28;6.00;1.00
816;DHT22;25928;51.062;13.752;2023-02-02T04:01:01;6.00;1.00
816;DHT22;25928;51.062;13.752;2023-02-02T04:03:26;6.10;1.00
816;DHT22;25928;51.062;13.752;2023-02-02T04:05:52;6.00;1.00
816;DHT22;25928;51.062;13.752;2023-02-02T04:08:19;6.10;1.00
816;DHT22;25928;51.062;13.752;2023-02-02T04:10:44;6.00;1.00
816;DHT22;25928;51.062;13.752;2023-02-02T04:13:10;6.00;1.00
816;DHT22;25928;51.062;13.752;2023-02-02T04:15:36;6.00;1.00
816;DHT22;25928;51.062;13.752;2023-02-02T04:18:01;6.10;1.00
816;DHT22;25928;51.062;13.752;2023-02-02T04:20:27;6.00;1.00
816;DHT22;25928;51.062;13.752;2023-02-02T04:22:53;6.00;1.00
816;DHT22;25928;51.062;13.752;2023-02-02T04:25:19;6.10;1.00
816;DHT22;25928;51.062;13.752;2023-02-02T04:27:44;6.00;1.00
816;DHT22;25928;51.062;13.752;2023-02-02T04:30:10;6.10;1.00
816;DHT22;25928;51.062;13.752;2023-02-02T04:32:36;6.10;1.00
816;DHT22;25928;51.062;13.752;2023-02-02T04:35:02;6.10;1.00
816;DHT22;25928;51.062;13.752;2023-02-02T04:37:30;6.00;1.00
816;DHT22;25928;51.062;13.752;2023-02-02T04:39:56;6.00;1.00
816;DHT22;25928;51.062;13.752;2023-02-02T04:42:22;6.10;1.00
816;DHT22;25928;51.062;13.752;2023-02-02T04:44:47;6.20;1.00
816;DHT22;25928;51.062;13.752;2023-02-02T04:47:13;6.20;1.00
816;DHT22;25928;51.062;13.752;2023-02-02T04:49:39;6.10;1.00
816;DHT22;25928;51.062;13.752;2023-02-02T04:52:05;6.10;1.00
816;DHT22;25928;51.062;13.752;2023-02-02T04:54:31;6.10;1.00
816;DHT22;25928;51.062;13.752;2023-02-02T04:56:57;6.10;1.00
816;DHT22;25928;51.062;13.752;2023-02-02T04:59:23;6.10;1.00
816;DHT22;25928;51.062;13.752;2023-02-02T05:01:48;6.00;1.00
816;DHT22;25928;51.062;13.752;2023-02-02T05:04:15;6.10;1.00
816;DHT22;25928;51.062;13.752;2023-02-02T05:06:41;6.10;1.00
816;DHT22;25928;51.062;13.752;2023-02-02T05:09:06;6.00;1.00
816;DHT22;25928;51.062;13.752;2023-02-02T05:11:32;6.00;1.00
816;DHT22;25928;51.062;13.752;2023-02-02T05:13:58;6.00;1.00
816;DHT22;25928;51.062;13.752;2023-02-02T05:16:23;6.00;1.00
816;DHT22;25928;51.062;13.752;2023-02-02T05:18:55;6.00;1.00
816;DHT22;25928;51.062;13.752;2023-02-02T05:21:21;6.10;1.00
816;DHT22;25928;51.062;13.752;2023-02-02T05:23:47;6.20;1.00
816;DHT22;25928;51.062;13.752;2023-02-02T05:26:16;6.10;1.00
816;DHT22;25928;51.062;13.752;2023-02-02T05:28:42;6.00;1.00
816;DHT22;25928;51.062;13.752;2023-02-02T05:31:08;6.00;1.00
816;DHT22;25928;51.062;13.752;2023-02-02T05:33:34;6.10;1.00
816;DHT22;25928;51.062;13.752;2023-02-02T05:36:00;6.10;1.00
816;DHT22;25928;51.062;13.752;2023-02-02T05:38:25;6.00;1.00
816;DHT22;25928;51.062;13.752;2023-02-02T05:40:51;6.10;1.00
816;DHT22;25928;51.062;13.752;2023-02-02T05:43:16;6.10;1.00
816;DHT22;25928;51.062;13.752;2023-02-02T05:45:42;6.10;1.00
816;DHT22;25928;51.062;13.752;2023-02-02T05:48:12;6.20;1.00
816;DHT22;25928;51.062;13.752;2023-02-02T05:50:39;6.20;1.00
816;DHT22;25928;51.062;13.752;2023-02-02T05:53:05;6.30;1.00
816;DHT22;25928;51.062;13.752;2023-02-02T05:55:31;6.30;1.00
816;DHT22;25928;51.062;13.752;2023-02-02T05:57:56;6.20;1.00
816;DHT22;25928;51.062;13.752;2023-02-02T06:00:22;6.20;1.00
816;DHT22;25928;51.062;13.752;2023-02-02T06:02:47;6.20;1.00
816;DHT22;25928;51.062;13.752;2023-02-02T06:05:13;6.20;1.00
816;DHT22;25928;51.062;13.752;2023-02-02T06:07:38;6.30;1.00
816;DHT22;25928;51.062;13.752;2023-02-02T06:10:06;6.40;1.00
816;DHT22;25928;51.062;13.752;2023-02-02T06:12:31;6.40;1.00
816;DHT22;25928;51.062;13.752;2023-02-02T06:14:57;6.30;1.00
816;DHT22;25928;51.062;13.752;2023-02-02T06:17:22;6.30;1.00
816;DHT22;25928;51.062;13.752;2023-02-02T06:19:48;6.50;1.00
816;DHT22;25928;51.062;13.752;2023-02-02T06:22:14;6.30;1.00
816;DHT22;25928;51.062;13.752;2023-02-02T06:24:39;6.20;1.00
816;DHT22;25928;51.062;13.752;2023-02-02T06:27:05;6.30;1.00
816;DHT22;25928;51.062;13.752;2023-02-02T06:29:31;6.30;1.00
816;DHT22;25928;51.062;13.752;2023-02-02T06:31:56;6.30;1.00
816;DHT22;25928;51.062;13.752;2023-02-02T06:34:22;6.30;1.00
816;DHT22;25928;51.062;13.752;2023-02-02T06:36:47;6.40;1.00
816;DHT22;25928;51.062;13.752;2023-02-02T06:39:13;6.40;1.00
816;DHT22;25928;51.062;13.752;2023-02-02T06:41:39;6.30;1.00
816;DHT22;25928;51.062;13.752;2023-02-02T06:44:05;6.20;1.00
816;DHT22;25928;51.062;13.752;2023-02-02T06:46:30;6.10;1.00
816;DHT22;25928;51.062;13.752;2023-02-02T06:48:56;6.00;1.00
816;DHT22;25928;51.062;13.752;2023-02-02T06:51:22;6.10;1.00
816;DHT22;25928;51.062;13.752;2023-02-02T06:53:48;6.20;1.00
816;DHT22;25928;51.062;13.752;2023-02-02T06:56:14;6.20;1.00
816;DHT22;25928;51.062;13.752;2023-02-02T06:58:40;6.20;1.00
816;DHT22;25928;51.062;13.752;2023-02-02T07:01:11;6.00;1.00
816;DHT22;25928;51.062;13.752;2023-02-02T07:03:37;6.10;1.00
816;DHT22;25928;51.062;13.752;2023-02-02T07:06:12;6.20;1.00
816;DHT22;25928;51.062;13.752;2023-02-02T07:08:39;6.30;1.00
816;DHT22;25928;51.062;13.752;2023-02-02T07:11:04;6.30;1.00
816;DHT22;25928;51.062;13.752;2023-02-02T07:13:30;6.30;1.00
816;DHT22;25928;51.062;13.752;2023-02-02T07:15:56;6.30;1.00
816;DHT22;25928;51.062;13.752;2023-02-02T07:18:23;6.30;1.00
816;DHT22;25928;51.062;13.752;2023-02-02T07:20:49;6.20;1.00
816;DHT22;25928;51.062;13.752;2023-02-02T07:23:15;6.10;1.00
816;DHT22;25928;51.062;13.752;2023-02-02T07:25:40;6.20;1.00
816;DHT22;25928;51.062;13.752;2023-02-02T07:28:06;6.20;1.00
816;DHT22;25928;51.062;13.752;2023-02-02T07:30:31;6.30;1.00
816;DHT22;25928;51.062;13.752;2023-02-02T07:32:57;6.20;1.00
816;DHT22;25928;51.062;13.752;2023-02-02T07:35:24;6.20;1.00
816;DHT22;25928;51.062;13.752;2023-02-02T07:37:54;6.30;1.00
816;DHT22;25928;51.062;13.752;2023-02-02T07:40:20;6.30;1.00
816;DHT22;25928;51.062;13.752;2023-02-02T07:42:47;6.30;1.00
816;DHT22;25928;51.062;13.752;2023-02-02T07:45:13;6.30;1.00
816;DHT22;25928;51.062;13.752;2023-02-02T07:47:39;6.30;1.00
816;DHT22;25928;51.062;13.752;2023-02-02T07:50:05;6.40;1.00
816;DHT22;25928;51.062;13.752;2023-02-02T07:52:30;6.40;1.00
816;DHT22;25928;51.062;13.752;2023-02-02T07:54:56;6.40;1.00
816;DHT22;25928;51.062;13.752;2023-02-02T07:57:22;6.60;1.00
816;DHT22;25928;51.062;13.752;2023-02-02T07:59:48;6.50;1.00
816;DHT22;25928;51.062;13.752;2023-02-02T08:02:15;6.60;1.00
816;DHT22;25928;51.062;13.752;2023-02-02T08:04:40;6.60;1.00
816;DHT22;25928;51.062;13.752;2023-02-02T08:07:06;6.60;1.00
816;DHT22;25928;51.062;13.752;2023-02-02T08:09:32;6.50;1.00
816;DHT22;25928;51.062;13.752;2023-02-02T08:11:57;6.50;1.00
816;DHT22;25928;51.062;13.752;2023-02-02T08:14:26;6.50;1.00
816;DHT22;25928;51.062;13.752;2023-02-02T08:16:52;6.50;1.00
816;DHT22;25928;51.062;13.752;2023-02-02T08:19:17;6.50;1.00
816;DHT22;25928;51.062;13.752;2023-02-02T08:21:43;6.40;1.00
816;DHT22;25928;51.062;13.752;2023-02-02T08:24:08;6.40;1.00
816;DHT22;25928;51.062;13.752;2023-02-02T08:26:34;6.40;1.00
816;DHT22;25928;51.062;13.752;2023-02-02T08:29:03;6.40;1.00
816;DHT22;25928;51.062;13.752;2023-02-02T08:31:32;6.50;1.00
816;DHT22;25928;51.062;13.752;2023-02-02T08:33:58;6.50;1.00
816;DHT22;25928;51.062;13.752;2023-02-02T08:36:26;6.50;1.00
816;DHT22;25928;51.062;13.752;2023-02-02T08:38:52;6.50;1.00
816;DHT22;25928;51.062;13.752;2023-02-02T08:41:20;6.40;1.00
816;DHT22;25928;51.062;13.752;2023-02-02T08:43:45;6.50;1.00
816;DHT22;25928;51.062;13.752;2023-02-02T08:46:13;6.40;1.00
816;DHT22;25928;51.062;13.752;2023-02-02T08:48:39;6.50;1.00
816;DHT22;25928;51.062;13.752;2023-02-02T08:51:06;6.50;1.00
816;DHT22;25928;51.062;13.752;2023-02-02T08:53:32;6.50;1.00
816;DHT22;25928;51.062;13.752;2023-02-02T08:56:08;6.50;1.00
816;DHT22;25928;51.062;13.752;2023-02-02T08:58:34;6.50;1.00
816;DHT22;25928;51.062;13.752;2023-02-02T09:01:07;6.60;1.00
816;DHT22;25928;51.062;13.752;2023-02-02T09:03:34;6.50;1.00
816;DHT22;25928;51.062;13.752;2023-02-02T09:06:04;6.50;1.00
816;DHT22;25928;51.062;13.752;2023-02-02T09:08:30;6.50;1.00
816;DHT22;25928;51.062;13.752;2023-02-02T09:11:02;6.40;1.00
816;DHT22;25928;51.062;13.752;2023-02-02T09:13:28;6.30;1.00
816;DHT22;25928;51.062;13.752;2023-02-02T09:15:58;6.40;1.00
816;DHT22;25928;51.062;13.752;2023-02-02T09:18:24;6.60;1.00
816;DHT22;25928;51.062;13.752;2023-02-02T09:20:50;6.70;1.00
816;DHT22;25928;51.062;13.752;2023-02-02T09:23:17;6.60;1.00
816;DHT22;25928;51.062;13.752;2023-02-02T09:25:43;6.60;1.00
816;DHT22;25928;51.062;13.752;2023-02-02T09:28:09;6.60;1.00
816;DHT22;25928;51.062;13.752;2023-02-02T09:30:34;6.70;1.00
816;DHT22;25928;51.062;13.752;2023-02-02T09:33:00;6.60;1.00
816;DHT22;25928;51.062;13.752;2023-02-02T09:35:25;6.60;1.00
816;DHT22;25928;51.062;13.752;2023-02-02T09:37:51;6.60;1.00
816;DHT22;25928;51.062;13.752;2023-02-02T09:40:17;6.60;1.00
816;DHT22;25928;51.062;13.752;2023-02-02T09:42:55;6.70;1.00
816;DHT22;25928;51.062;13.752;2023-02-02T09:45:33;6.70;1.00
816;DHT22;25928;51.062;13.752;2023-02-02T09:51:07;6.80;1.00
816;DHT22;25928;51.062;13.752;2023-02-02T09:53:39;6.80;1.00
816;DHT22;25928;51.062;13.752;2023-02-02T09:56:13;6.80;1.00
816;DHT22;25928;51.062;13.752;2023-02-02T09:58:51;6.70;1.00
816;DHT22;25928;51.062;13.752;2023-02-02T10:01:24;6.60;1.00
816;DHT22;25928;51.062;13.752;2023-02-02T10:04:04;6.60;1.00
816;DHT22;25928;51.062;13.752;2023-02-02T10:06:41;6.80;1.00
816;DHT22;25928;51.062;13.752;2023-02-02T10:09:35;6.90;1.00
816;DHT22;25928;51.062;13.752;2023-02-02T10:15:38;6.80;1.00
816;DHT22;25928;51.062;13.752;2023-02-02T10:21:17;6.90;1.00
816;DHT22;25928;51.062;13.752;2023-02-02T10:23:45;6.90;1.00
816;DHT22;25928;51.062;13.752;2023-02-02T10:26:42;6.90;1.00
816;DHT22;25928;51.062;13.752;2023-02-02T10:31:51;6.90;1.00
816;DHT22;25928;51.062;13.752;2023-02-02T10:34:31;6.80;1.00
816;DHT22;25928;51.062;13.752;2023-02-02T10:39:44;6.60;1.00
816;DHT22;25928;51.062;13.752;2023-02-02T10:45:00;6.70;1.00
816;DHT22;25928;51.062;13.752;2023-02-02T10:47:30;6.60;1.00
816;DHT22;25928;51.062;13.752;2023-02-02T10:52:39;6.60;1.00
816;DHT22;25928;51.062;13.752;2023-02-02T10:58:02;6.70;1.00
816;DHT22;25928;51.062;13.752;2023-02-02T11:00:34;6.80;1.00
816;DHT22;25928;51.062;13.752;2023-02-02T11:03:02;6.90;1.00
816;DHT22;25928;51.062;13.752;2023-02-02T11:05:32;6.90;1.00
816;DHT22;25928;51.062;13.752;2023-02-02T11:08:34;7.00;1.00
816;DHT22;25928;51.062;13.752;2023-02-02T11:14:02;7.00;1.00
816;DHT22;25928;51.062;13.752;2023-02-02T11:16:34;6.90;1.00
816;DHT22;25928;51.062;13.752;2023-02-02T11:19:00;7.00;1.00
816;DHT22;25928;51.062;13.752;2023-02-02T11:21:33;6.90;1.00
816;DHT22;25928;51.062;13.752;2023-02-02T11:29:32;7.10;1.00
816;DHT22;25928;51.062;13.752;2023-02-02T11:32:32;7.10;1.00
816;DHT22;25928;51.062;13.752;2023-02-02T11:37:37;7.20;1.00
816;DHT22;25928;51.062;13.752;2023-02-02T11:42:53;7.20;1.00
816;DHT22;25928;51.062;13.752;2023-02-02T11:45:31;7.20;1.00
816;DHT22;25928;51.062;13.752;2023-02-02T11:50:40;7.20;1.00
816;DHT22;25928;51.062;13.752;2023-02-02T11:53:35;7.10;1.00
816;DHT22;25928;51.062;13.752;2023-02-02T11:56:07;7.00;1.00
816;DHT22;25928;51.062;13.752;2023-02-02T11:58:44;7.10;1.00
816;DHT22;25928;51.062;13.752;2023-02-02T12:03:58;6.90;1.00
816;DHT22;25928;51.062;13.752;2023-02-02T12:06:25;7.10;1.00
816;DHT22;25928;51.062;13.752;2023-02-02T12:08:57;7.10;1.00
816;DHT22;25928;51.062;13.752;2023-02-02T12:14:49;7.40;1.00
816;DHT22;25928;51.062;13.752;2023-02-02T12:17:38;7.30;1.00
816;DHT22;25928;51.062;13.752;2023-02-02T12:23:35;7.20;1.00
816;DHT22;25928;51.062;13.752;2023-02-02T12:29:33;7.00;1.00
816;DHT22;25928;51.062;13.752;2023-02-02T12:37:35;7.10;1.00
816;DHT22;25928;51.062;13.752;2023-02-02T12:59:41;7.60;1.00
816;DHT22;25928;51.062;13.752;2023-02-02T13:02:30;7.70;1.00
816;DHT22;25928;51.062;13.752;2023-02-02T13:08:11;7.50;1.00
816;DHT22;25928;51.062;13.752;2023-02-02T13:10:42;7.40;1.00
816;DHT22;25928;51.062;13.752;2023-02-02T13:13:16;7.40;1.00
816;DHT22;25928;51.062;13.752;2023-02-02T13:15:46;7.50;1.00
816;DHT22;25928;51.062;13.752;2023-02-02T13:18:29;7.50;1.00
816;DHT22;25928;51.062;13.752;2023-02-02T13:21:01;7.40;1.00
816;DHT22;25928;51.062;13.752;2023-02-02T13:23:32;4.80;1.00
816;DHT22;25928;51.062;13.752;2023-02-02T13:26:15;7.40;1.00
816;DHT22;25928;51.062;13.752;2023-02-02T13:29:06;7.50;1.00
816;DHT22;25928;51.062;13.752;2023-02-02T13:38:01;7.60;1.00
816;DHT22;25928;51.062;13.752;2023-02-02T13:40:29;7.50;1.00
816;DHT22;25928;51.062;13.752;2023-02-02T13:46:14;7.70;1.00
816;DHT22;25928;51.062;13.752;2023-02-02T13:51:34;7.50;1.00
816;DHT22;25928;51.062;13.752;2023-02-02T13:54:13;7.40;1.00
816;DHT22;25928;51.062;13.752;2023-02-02T13:56:45;7.50;1.00
816;DHT22;25928;51.062;13.752;2023-02-02T14:01:48;7.20;1.00
816;DHT22;25928;51.062;13.752;2023-02-02T14:04:25;7.20;1.00
816;DHT22;25928;51.062;13.752;2023-02-02T14:06:58;7.10;1.00
816;DHT22;25928;51.062;13.752;2023-02-02T14:09:27;7.10;1.00
816;DHT22;25928;51.062;13.752;2023-02-02T14:12:00;7.10;1.00
816;DHT22;25928;51.062;13.752;2023-02-02T14:14:27;7.10;1.00
816;DHT22;25928;51.062;13.752;2023-02-02T14:16:58;6.80;1.00
816;DHT22;25928;51.062;13.752;2023-02-02T14:43:40;7.80;1.00
816;DHT22;25928;51.062;13.752;2023-02-02T14:51:23;7.80;1.00
816;DHT22;25928;51.062;13.752;2023-02-02T14:56:18;7.80;1.00
816;DHT22;25928;51.062;13.752;2023-02-02T14:58:54;7.80;1.00
816;DHT22;25928;51.062;13.752;2023-02-02T15:01:31;7.80;1.00
816;DHT22;25928;51.062;13.752;2023-02-02T15:06:46;7.80;1.00
816;DHT22;25928;51.062;13.752;2023-02-02T15:23:13;7.50;1.00
816;DHT22;25928;51.062;13.752;2023-02-02T15:28:25;7.50;1.00
816;DHT22;25928;51.062;13.752;2023-02-02T15:33:50;7.20;1.00
816;DHT22;25928;51.062;13.752;2023-02-02T15:36:25;7.30;1.00
816;DHT22;25928;51.062;13.752;2023-02-02T15:38:57;7.30;1.00
816;DHT22;25928;51.062;13.752;2023-02-02T15:41:36;7.30;1.00
816;DHT22;25928;51.062;13.752;2023-02-02T15:44:18;7.20;1.00
816;DHT22;25928;51.062;13.752;2023-02-02T15:46:44;7.20;1.00
816;DHT22;25928;51.062;13.752;2023-02-02T15:49:30;7.20;1.00
816;DHT22;25928;51.062;13.752;2023-02-02T15:51:58;7.20;1.00
816;DHT22;25928;51.062;13.752;2023-02-02T15:54:33;7.10;1.00
816;DHT22;25928;51.062;13.752;2023-02-02T15:57:00;7.10;1.00
816;DHT22;25928;51.062;13.752;2023-02-02T15:59:38;7.10;1.00
816;DHT22;25928;51.062;13.752;2023-02-02T16:04:41;7.10;1.00
816;DHT22;25928;51.062;13.752;2023-02-02T16:07:16;6.90;1.00
816;DHT22;25928;51.062;13.752;2023-02-02T16:09:43;6.90;1.00
816;DHT22;25928;51.062;13.752;2023-02-02T16:12:15;6.90;1.00
816;DHT22;25928;51.062;13.752;2023-02-02T16:14:49;6.90;1.00
816;DHT22;25928;51.062;13.752;2023-02-02T16:17:21;6.90;1.00
816;DHT22;25928;51.062;13.752;2023-02-02T16:19:49;7.00;1.00
816;DHT22;25928;51.062;13.752;2023-02-02T16:22:18;6.60;1.00
816;DHT22;25928;51.062;13.752;2023-02-02T16:24:51;6.40;1.00
816;DHT22;25928;51.062;13.752;2023-02-02T16:27:23;6.20;1.00
816;DHT22;25928;51.062;13.752;2023-02-02T16:29:50;6.00;1.00
816;DHT22;25928;51.062;13.752;2023-02-02T16:32:36;6.00;1.00
816;DHT22;25928;51.062;13.752;2023-02-02T16:35:06;6.00;1.00
816;DHT22;25928;51.062;13.752;2023-02-02T16:37:34;5.90;1.00
816;DHT22;25928;51.062;13.752;2023-02-02T16:40:26;5.70;1.00
816;DHT22;25928;51.062;13.752;2023-02-02T16:43:05;5.90;1.00
816;DHT22;25928;51.062;13.752;2023-02-02T16:45:33;5.80;1.00
816;DHT22;25928;51.062;13.752;2023-02-02T16:53:44;6.00;1.00
816;DHT22;25928;51.062;13.752;2023-02-02T16:56:39;6.00;1.00
816;DHT22;25928;51.062;13.752;2023-02-02T16:59:28;6.00;1.00
816;DHT22;25928;51.062;13.752;2023-02-02T17:02:02;5.80;1.00
816;DHT22;25928;51.062;13.752;2023-02-02T17:04:32;5.80;1.00
816;DHT22;25928;51.062;13.752;2023-02-02T17:07:07;5.70;1.00
816;DHT22;25928;51.062;13.752;2023-02-02T17:09:39;5.80;1.00
816;DHT22;25928;51.062;13.752;2023-02-02T17:12:22;5.70;1.00
816;DHT22;25928;51.062;13.752;2023-02-02T17:15:00;5.80;1.00
816;DHT22;25928;51.062;13.752;2023-02-02T17:17:29;5.70;1.00
816;DHT22;25928;51.062;13.752;2023-02-02T17:19:55;5.60;1.00
816;DHT22;25928;51.062;13.752;2023-02-02T17:22:22;5.60;1.00
816;DHT22;25928;51.062;13.752;2023-02-02T17:24:50;5.60;1.00
816;DHT22;25928;51.062;13.752;2023-02-02T17:27:26;5.60;1.00
816;DHT22;25928;51.062;13.752;2023-02-02T17:29:53;5.60;1.00
816;DHT22;25928;51.062;13.752;2023-02-02T17:32:18;5.70;1.00
816;DHT22;25928;51.062;13.752;2023-02-02T17:34:44;5.80;1.00
816;DHT22;25928;51.062;13.752;2023-02-02T17:37:10;5.70;1.00
816;DHT22;25928;51.062;13.752;2023-02-02T17:39:36;5.90;1.00
816;DHT22;25928;51.062;13.752;2023-02-02T17:42:03;5.90;1.00
816;DHT22;25928;51.062;13.752;2023-02-02T17:44:28;5.80;1.00
816;DHT22;25928;51.062;13.752;2023-02-02T17:46:54;5.80;1.00
816;DHT22;25928;51.062;13.752;2023-02-02T17:49:19;5.80;1.00
816;DHT22;25928;51.062;13.752;2023-02-02T17:51:45;5.70;1.00
816;DHT22;25928;51.062;13.752;2023-02-02T17:54:12;5.70;1.00
816;DHT22;25928;51.062;13.752;2023-02-02T17:56:38;5.60;1.00
816;DHT22;25928;51.062;13.752;2023-02-02T17:59:04;5.60;1.00
816;DHT22;25928;51.062;13.752;2023-02-02T18:01:30;5.40;1.00
816;DHT22;25928;51.062;13.752;2023-02-02T18:03:56;5.50;1.00
816;DHT22;25928;51.062;13.752;2023-02-02T18:06:22;5.40;1.00
816;DHT22;25928;51.062;13.752;2023-02-02T18:08:47;5.50;1.00
816;DHT22;25928;51.062;13.752;2023-02-02T18:11:14;5.60;1.00
816;DHT22;25928;51.062;13.752;2023-02-02T18:13:41;5.60;1.00
816;DHT22;25928;51.062;13.752;2023-02-02T18:16:08;5.80;1.00
816;DHT22;25928;51.062;13.752;2023-02-02T18:18:34;5.70;1.00
816;DHT22;25928;51.062;13.752;2023-02-02T18:21:00;5.60;1.00
816;DHT22;25928;51.062;13.752;2023-02-02T18:23:26;5.80;1.00
816;DHT22;25928;51.062;13.752;2023-02-02T18:25:51;5.90;1.00
816;DHT22;25928;51.062;13.752;2023-02-02T18:28:17;5.80;1.00
816;DHT22;25928;51.062;13.752;2023-02-02T18:30:44;5.80;1.00
816;DHT22;25928;51.062;13.752;2023-02-02T18:33:10;5.80;1.00
816;DHT22;25928;51.062;13.752;2023-02-02T18:35:44;5.80;1.00
816;DHT22;25928;51.062;13.752;2023-02-02T18:38:10;5.90;1.00
816;DHT22;25928;51.062;13.752;2023-02-02T18:40:35;6.00;1.00
816;DHT22;25928;51.062;13.752;2023-02-02T18:43:02;6.00;1.00
816;DHT22;25928;51.062;13.752;2023-02-02T18:45:27;6.00;1.00
816;DHT22;25928;51.062;13.752;2023-02-02T18:47:53;6.00;1.00
816;DHT22;25928;51.062;13.752;2023-02-02T18:50:20;6.00;1.00
816;DHT22;25928;51.062;13.752;2023-02-02T18:52:46;5.90;1.00
816;DHT22;25928;51.062;13.752;2023-02-02T18:55:12;5.90;1.00
816;DHT22;25928;51.062;13.752;2023-02-02T18:57:38;5.90;1.00
816;DHT22;25928;51.062;13.752;2023-02-02T19:00:04;5.90;1.00
816;DHT22;25928;51.062;13.752;2023-02-02T19:02:30;5.90;1.00
816;DHT22;25928;51.062;13.752;2023-02-02T19:04:55;5.80;1.00
816;DHT22;25928;51.062;13.752;2023-02-02T19:07:40;5.80;1.00
816;DHT22;25928;51.062;13.752;2023-02-02T19:10:24;5.90;1.00
816;DHT22;25928;51.062;13.752;2023-02-02T19:12:53;5.90;1.00
816;DHT22;25928;51.062;13.752;2023-02-02T19:15:19;5.90;1.00
816;DHT22;25928;51.062;13.752;2023-02-02T19:17:47;5.80;1.00
816;DHT22;25928;51.062;13.752;2023-02-02T19:20:28;5.70;1.00
816;DHT22;25928;51.062;13.752;2023-02-02T19:23:00;5.70;1.00
816;DHT22;25928;51.062;13.752;2023-02-02T19:25:27;5.60;1.00
816;DHT22;25928;51.062;13.752;2023-02-02T19:27:53;5.60;1.00
816;DHT22;25928;51.062;13.752;2023-02-02T19:30:20;5.60;1.00
816;DHT22;25928;51.062;13.752;2023-02-02T19:32:46;5.50;1.00
816;DHT22;25928;51.062;13.752;2023-02-02T19:35:22;5.50;1.00